sensor_id;sensor_type;location;lat;lon;timestamp;P1;P2;P0
32066;PMS7003;18573;47.890;35.066;2022-12-18T00:01:27;42.25;36.50;21.00
32066;PMS7003;18573;47.890;35.066;2022-12-18T00:03:59;40.75;36.50;21.50
32066;PMS7003;18573;47.890;35.066;2022-12-18T00:06:30;40.75;37.50;18.75
32066;PMS7003;18573;47.890;35.066;2022-12-18T00:09:00;31.50;30.50;18.25
32066;PMS7003;18573;47.890;35.066;2022-12-18T00:11:31;35.75;33.25;18.00
32066;PMS7003;18573;47.890;35.066;2022-12-18T00:14:00;38.75;34.75;21.25
32066;PMS7003;18573;47.890;35.066;2022-12-18T00:16:29;14.25;13.75;6.25
32066;PMS7003;18573;47.890;35.066;2022-12-18T00:19:00;32.50;32.00;17.25
32066;PMS7003;18573;47.890;35.066;2022-12-18T00:21:33;22.25;16.00;2.00
32066;PMS7003;18573;47.890;35.066;2022-12-18T00:24:02;36.00;33.75;18.50
32066;PMS7003;18573;47.890;35.066;2022-12-18T00:26:32;32.50;30.50;16.75
32066;PMS7003;18573;47.890;35.066;2022-12-18T00:29:04;33.50;32.50;17.50
32066;PMS7003;18573;47.890;35.066;2022-12-18T00:31:35;36.75;33.00;19.25
32066;PMS7003;18573;47.890;35.066;2022-12-18T00:34:05;47.00;43.50;20.75
32066;PMS7003;18573;47.890;35.066;2022-12-18T00:36:34;42.00;33.75;21.25
32066;PMS7003;18573;47.890;35.066;2022-12-18T00:39:03;51.75;37.50;19.00
32066;PMS7003;18573;47.890;35.066;2022-12-18T00:41:33;44.50;36.75;22.00
32066;PMS7003;18573;47.890;35.066;2022-12-18T00:44:20;26.50;25.75;19.00
32066;PMS7003;18573;47.890;35.066;2022-12-18T00:46:49;39.50;36.00;22.50
32066;PMS7003;18573;47.890;35.066;2022-12-18T00:49:18;31.00;28.00;16.00
32066;PMS7003;18573;47.890;35.066;2022-12-18T00:51:48;28.75;28.25;12.25
32066;PMS7003;18573;47.890;35.066;2022-12-18T00:54:17;34.25;31.75;12.25
32066;PMS7003;18573;47.890;35.066;2022-12-18T00:56:46;31.00;31.00;15.00
32066;PMS7003;18573;47.890;35.066;2022-12-18T00:59:16;39.50;35.25;17.75
32066;PMS7003;18573;47.890;35.066;2022-12-18T01:01:46;32.75;28.75;18.00
32066;PMS7003;18573;47.890;35.066;2022-12-18T01:04:15;35.50;32.75;17.25
32066;PMS7003;18573;47.890;35.066;2022-12-18T01:06:44;38.75;35.50;16.00
32066;PMS7003;18573;47.890;35.066;2022-12-18T01:09:13;49.25;43.50;22.50
32066;PMS7003;18573;47.890;35.066;2022-12-18T01:11:42;53.25;43.50;23.50
32066;PMS7003;18573;47.890;35.066;2022-12-18T01:14:11;56.25;46.50;25.00
32066;PMS7003;18573;47.890;35.066;2022-12-18T01:16:40;46.00;38.25;17.00
32066;PMS7003;18573;47.890;35.066;2022-12-18T01:19:11;49.75;39.25;22.25
32066;PMS7003;18573;47.890;35.066;2022-12-18T01:21:40;40.50;35.00;17.50
32066;PMS7003;18573;47.890;35.066;2022-12-18T01:24:09;32.00;31.75;16.50
32066;PMS7003;18573;47.890;35.066;2022-12-18T01:26:40;32.50;29.50;14.00
32066;PMS7003;18573;47.890;35.066;2022-12-18T01:29:09;26.25;22.00;13.50
32066;PMS7003;18573;47.890;35.066;2022-12-18T01:31:38;29.25;27.25;14.50
32066;PMS7003;18573;47.890;35.066;2022-12-18T01:34:08;25.50;24.75;14.25
32066;PMS7003;18573;47.890;35.066;2022-12-18T01:36:37;25.50;25.00;13.25
32066;PMS7003;18573;47.890;35.066;2022-12-18T01:39:08;29.50;27.75;14.00
32066;PMS7003;18573;47.890;35.066;2022-12-18T01:41:41;22.50;21.50;10.50
32066;PMS7003;18573;47.890;35.066;2022-12-18T01:50:19;27.50;27.00;11.75
32066;PMS7003;18573;47.890;35.066;2022-12-18T01:53:15;27.00;26.25;15.00
32066;PMS7003;18573;47.890;35.066;2022-12-18T01:55:53;26.25;22.00;10.75
32066;PMS7003;18573;47.890;35.066;2022-12-18T01:58:24;26.00;21.75;12.00
32066;PMS7003;18573;47.890;35.066;2022-12-18T02:01:10;22.50;21.25;11.25
32066;PMS7003;18573;47.890;35.066;2022-12-18T02:03:46;21.00;20.75;10.50
32066;PMS7003;18573;47.890;35.066;2022-12-18T02:25:21;11.25;10.25;6.50
32066;PMS7003;18573;47.890;35.066;2022-12-18T02:27:53;15.00;15.00;6.00
32066;PMS7003;18573;47.890;35.066;2022-12-18T02:30:24;10.75;8.75;6.25
32066;PMS7003;18573;47.890;35.066;2022-12-18T02:32:56;12.75;11.50;7.00
32066;PMS7003;18573;47.890;35.066;2022-12-18T02:35:29;10.50;10.50;7.00
32066;PMS7003;18573;47.890;35.066;2022-12-18T02:37:59;7.50;6.75;2.25
32066;PMS7003;18573;47.890;35.066;2022-12-18T02:40:29;6.50;6.50;4.50
32066;PMS7003;18573;47.890;35.066;2022-12-18T02:43:03;13.25;10.25;6.00
32066;PMS7003;18573;47.890;35.066;2022-12-18T02:45:45;7.50;7.50;4.00
32066;PMS7003;18573;47.890;35.066;2022-12-18T02:48:17;6.75;6.75;4.75
32066;PMS7003;18573;47.890;35.066;2022-12-18T02:51:36;5.25;3.75;2.75
32066;PMS7003;18573;47.890;35.066;2022-12-18T02:56:13;12.50;10.50;5.50
32066;PMS7003;18573;47.890;35.066;2022-12-18T03:01:38;13.75;10.25;7.00
32066;PMS7003;18573;47.890;35.066;2022-12-18T03:04:12;6.50;6.50;3.00
32066;PMS7003;18573;47.890;35.066;2022-12-18T03:06:46;11.50;11.25;7.00
32066;PMS7003;18573;47.890;35.066;2022-12-18T03:09:19;13.50;12.75;8.00
32066;PMS7003;18573;47.890;35.066;2022-12-18T03:11:54;18.50;18.50;11.25
32066;PMS7003;18573;47.890;35.066;2022-12-18T03:14:42;9.00;9.00;3.00
32066;PMS7003;18573;47.890;35.066;2022-12-18T03:17:15;11.75;11.00;6.00
32066;PMS7003;18573;47.890;35.066;2022-12-18T03:19:46;11.00;11.00;6.00
32066;PMS7003;18573;47.890;35.066;2022-12-18T03:22:17;12.50;12.50;8.00
32066;PMS7003;18573;47.890;35.066;2022-12-18T03:24:48;8.50;8.50;6.50
32066;PMS7003;18573;47.890;35.066;2022-12-18T03:27:19;10.25;10.25;6.00
32066;PMS7003;18573;47.890;35.066;2022-12-18T03:29:52;10.25;9.00;7.00
32066;PMS7003;18573;47.890;35.066;2022-12-18T03:32:28;9.25;9.25;6.75
32066;PMS7003;18573;47.890;35.066;2022-12-18T03:34:58;10.25;10.25;6.25
32066;PMS7003;18573;47.890;35.066;2022-12-18T03:37:29;8.50;8.50;5.75
32066;PMS7003;18573;47.890;35.066;2022-12-18T03:39:58;10.50;9.75;6.75
32066;PMS7003;18573;47.890;35.066;2022-12-18T03:42:39;8.75;8.50;5.00
32066;PMS7003;18573;47.890;35.066;2022-12-18T03:45:18;8.50;8.50;5.00
32066;PMS7003;18573;47.890;35.066;2022-12-18T03:47:59;10.75;10.25;6.00
32066;PMS7003;18573;47.890;35.066;2022-12-18T03:50:38;10.00;9.75;6.50
32066;PMS7003;18573;47.890;35.066;2022-12-18T03:53:25;12.25;11.75;6.75
32066;PMS7003;18573;47.890;35.066;2022-12-18T03:56:04;12.25;11.25;6.00
32066;PMS7003;18573;47.890;35.066;2022-12-18T03:58:34;13.00;13.00;6.75
32066;PMS7003;18573;47.890;35.066;2022-12-18T04:01:08;11.00;10.50;7.25
32066;PMS7003;18573;47.890;35.066;2022-12-18T04:03:40;9.50;9.50;6.50
32066;PMS7003;18573;47.890;35.066;2022-12-18T04:06:10;11.75;11.25;6.75
32066;PMS7003;18573;47.890;35.066;2022-12-18T04:08:41;14.50;13.25;7.00
32066;PMS7003;18573;47.890;35.066;2022-12-18T04:11:11;19.50;15.50;7.00
32066;PMS7003;18573;47.890;35.066;2022-12-18T04:13:41;10.50;10.50;5.00
32066;PMS7003;18573;47.890;35.066;2022-12-18T04:16:11;10.75;10.00;5.75
32066;PMS7003;18573;47.890;35.066;2022-12-18T04:18:40;15.50;14.50;7.00
32066;PMS7003;18573;47.890;35.066;2022-12-18T04:21:09;9.00;7.75;5.25
32066;PMS7003;18573;47.890;35.066;2022-12-18T04:23:39;11.50;11.50;5.75
32066;PMS7003;18573;47.890;35.066;2022-12-18T04:26:08;14.25;14.25;5.75
32066;PMS7003;18573;47.890;35.066;2022-12-18T04:28:37;14.25;14.00;8.75
32066;PMS7003;18573;47.890;35.066;2022-12-18T04:31:06;10.00;10.00;6.00
32066;PMS7003;18573;47.890;35.066;2022-12-18T04:33:35;11.00;11.00;6.50
32066;PMS7003;18573;47.890;35.066;2022-12-18T04:36:05;17.25;15.00;7.50
32066;PMS7003;18573;47.890;35.066;2022-12-18T04:38:35;18.25;12.25;7.00
32066;PMS7003;18573;47.890;35.066;2022-12-18T04:41:04;16.00;14.25;7.00
32066;PMS7003;18573;47.890;35.066;2022-12-18T04:43:33;19.50;16.00;7.00
32066;PMS7003;18573;47.890;35.066;2022-12-18T04:46:03;16.00;11.50;6.25
32066;PMS7003;18573;47.890;35.066;2022-12-18T04:48:34;12.50;11.75;6.00
32066;PMS7003;18573;47.890;35.066;2022-12-18T04:51:04;10.00;10.00;5.75
32066;PMS7003;18573;47.890;35.066;2022-12-18T04:53:34;11.25;10.25;6.75
32066;PMS7003;18573;47.890;35.066;2022-12-18T04:56:11;14.00;13.75;7.00
32066;PMS7003;18573;47.890;35.066;2022-12-18T04:58:42;17.00;12.00;6.75
32066;PMS7003;18573;47.890;35.066;2022-12-18T05:01:12;19.00;12.00;9.25
32066;PMS7003;18573;47.890;35.066;2022-12-18T05:03:42;13.75;13.75;5.00
32066;PMS7003;18573;47.890;35.066;2022-12-18T05:06:12;10.75;10.75;7.00
32066;PMS7003;18573;47.890;35.066;2022-12-18T05:08:41;13.50;12.00;6.75
32066;PMS7003;18573;47.890;35.066;2022-12-18T05:11:12;12.25;11.25;6.25
32066;PMS7003;18573;47.890;35.066;2022-12-18T05:13:43;11.75;11.75;9.00
32066;PMS7003;18573;47.890;35.066;2022-12-18T05:16:12;17.50;13.00;7.00
32066;PMS7003;18573;47.890;35.066;2022-12-18T05:18:42;15.75;15.00;7.25
32066;PMS7003;18573;47.890;35.066;2022-12-18T05:21:12;15.25;14.75;8.75
32066;PMS7003;18573;47.890;35.066;2022-12-18T05:23:40;17.00;16.25;10.75
32066;PMS7003;18573;47.890;35.066;2022-12-18T05:26:10;19.75;16.50;9.00
32066;PMS7003;18573;47.890;35.066;2022-12-18T05:28:42;26.50;17.50;9.25
32066;PMS7003;18573;47.890;35.066;2022-12-18T05:31:11;20.75;16.25;10.50
32066;PMS7003;18573;47.890;35.066;2022-12-18T05:33:41;18.50;12.00;7.50
32066;PMS7003;18573;47.890;35.066;2022-12-18T05:36:10;15.00;13.75;9.25
32066;PMS7003;18573;47.890;35.066;2022-12-18T05:38:39;23.50;20.75;8.50
32066;PMS7003;18573;47.890;35.066;2022-12-18T05:41:08;27.50;24.00;14.00
32066;PMS7003;18573;47.890;35.066;2022-12-18T05:43:40;36.50;30.75;16.25
32066;PMS7003;18573;47.890;35.066;2022-12-18T05:46:13;33.50;29.25;15.00
32066;PMS7003;18573;47.890;35.066;2022-12-18T05:48:46;33.00;32.50;16.25
32066;PMS7003;18573;47.890;35.066;2022-12-18T05:51:17;23.25;20.75;10.50
32066;PMS7003;18573;47.890;35.066;2022-12-18T05:53:48;32.50;29.50;17.50
32066;PMS7003;18573;47.890;35.066;2022-12-18T05:56:18;36.25;28.25;11.50
32066;PMS7003;18573;47.890;35.066;2022-12-18T05:58:55;29.00;25.75;13.50
32066;PMS7003;18573;47.890;35.066;2022-12-18T06:01:22;33.25;27.50;12.50
32066;PMS7003;18573;47.890;35.066;2022-12-18T06:03:53;26.25;26.25;14.75
32066;PMS7003;18573;47.890;35.066;2022-12-18T06:06:23;19.50;19.00;9.50
32066;PMS7003;18573;47.890;35.066;2022-12-18T06:08:55;29.50;28.50;10.75
32066;PMS7003;18573;47.890;35.066;2022-12-18T06:11:25;28.00;28.00;13.50
32066;PMS7003;18573;47.890;35.066;2022-12-18T06:13:55;25.50;21.00;11.00
32066;PMS7003;18573;47.890;35.066;2022-12-18T06:16:26;20.50;20.00;10.75
32066;PMS7003;18573;47.890;35.066;2022-12-18T06:19:03;18.75;15.75;9.00
32066;PMS7003;18573;47.890;35.066;2022-12-18T06:21:28;22.00;22.00;13.25
32066;PMS7003;18573;47.890;35.066;2022-12-18T06:23:59;24.50;20.25;8.00
32066;PMS7003;18573;47.890;35.066;2022-12-18T06:26:28;22.25;20.00;10.00
32066;PMS7003;18573;47.890;35.066;2022-12-18T06:28:57;18.25;16.75;9.00
32066;PMS7003;18573;47.890;35.066;2022-12-18T06:31:26;20.25;18.25;9.25
32066;PMS7003;18573;47.890;35.066;2022-12-18T06:33:56;20.50;19.25;9.75
32066;PMS7003;18573;47.890;35.066;2022-12-18T06:36:28;24.75;22.75;10.50
32066;PMS7003;18573;47.890;35.066;2022-12-18T06:38:57;21.75;18.25;10.25
32066;PMS7003;18573;47.890;35.066;2022-12-18T06:41:27;19.50;19.00;9.25
32066;PMS7003;18573;47.890;35.066;2022-12-18T06:43:57;19.50;18.00;8.75
32066;PMS7003;18573;47.890;35.066;2022-12-18T06:46:26;17.00;15.75;9.00
32066;PMS7003;18573;47.890;35.066;2022-12-18T06:48:55;16.00;14.75;7.75
32066;PMS7003;18573;47.890;35.066;2022-12-18T06:51:24;18.50;18.50;9.25
32066;PMS7003;18573;47.890;35.066;2022-12-18T06:53:53;23.00;22.00;12.00
32066;PMS7003;18573;47.890;35.066;2022-12-18T06:56:22;23.25;23.25;11.50
32066;PMS7003;18573;47.890;35.066;2022-12-18T06:58:52;23.75;22.00;10.00
32066;PMS7003;18573;47.890;35.066;2022-12-18T07:01:22;19.00;18.25;9.25
32066;PMS7003;18573;47.890;35.066;2022-12-18T07:03:52;14.75;14.75;7.00
32066;PMS7003;18573;47.890;35.066;2022-12-18T07:06:22;16.75;15.75;9.75
32066;PMS7003;18573;47.890;35.066;2022-12-18T07:08:53;17.00;15.00;9.00
32066;PMS7003;18573;47.890;35.066;2022-12-18T07:11:22;17.50;17.25;8.50
32066;PMS7003;18573;47.890;35.066;2022-12-18T07:13:52;12.00;11.50;7.00
32066;PMS7003;18573;47.890;35.066;2022-12-18T07:16:21;10.25;10.25;6.50
32066;PMS7003;18573;47.890;35.066;2022-12-18T07:18:52;8.00;8.00;4.00
32066;PMS7003;18573;47.890;35.066;2022-12-18T07:21:23;12.75;11.50;6.75
32066;PMS7003;18573;47.890;35.066;2022-12-18T07:23:52;12.75;10.25;5.25
32066;PMS7003;18573;47.890;35.066;2022-12-18T07:26:22;10.25;10.25;6.00
32066;PMS7003;18573;47.890;35.066;2022-12-18T07:28:53;8.50;8.00;5.00
32066;PMS7003;18573;47.890;35.066;2022-12-18T07:31:24;10.50;9.75;6.00
32066;PMS7003;18573;47.890;35.066;2022-12-18T07:33:55;9.00;9.00;5.00
32066;PMS7003;18573;47.890;35.066;2022-12-18T07:36:24;9.00;7.00;5.50
32066;PMS7003;18573;47.890;35.066;2022-12-18T07:38:53;5.75;5.75;3.00
32066;PMS7003;18573;47.890;35.066;2022-12-18T07:41:22;7.00;7.00;6.00
32066;PMS7003;18573;47.890;35.066;2022-12-18T07:43:51;7.00;7.00;5.00
32066;PMS7003;18573;47.890;35.066;2022-12-18T07:46:21;10.50;10.50;6.00
32066;PMS7003;18573;47.890;35.066;2022-12-18T07:48:50;7.00;7.00;3.50
32066;PMS7003;18573;47.890;35.066;2022-12-18T07:51:19;10.25;9.75;5.00
32066;PMS7003;18573;47.890;35.066;2022-12-18T07:53:48;9.00;9.00;6.25
32066;PMS7003;18573;47.890;35.066;2022-12-18T07:56:18;9.00;8.50;5.00
32066;PMS7003;18573;47.890;35.066;2022-12-18T07:58:50;13.00;10.75;6.25
32066;PMS7003;18573;47.890;35.066;2022-12-18T08:01:19;13.00;12.75;7.00
32066;PMS7003;18573;47.890;35.066;2022-12-18T08:03:48;7.00;6.00;3.50
32066;PMS7003;18573;47.890;35.066;2022-12-18T08:06:18;7.50;7.00;5.00
32066;PMS7003;18573;47.890;35.066;2022-12-18T08:08:50;8.00;7.25;4.00
32066;PMS7003;18573;47.890;35.066;2022-12-18T08:11:20;9.25;9.25;6.00
32066;PMS7003;18573;47.890;35.066;2022-12-18T08:13:51;7.00;6.00;5.00
32066;PMS7003;18573;47.890;35.066;2022-12-18T08:16:20;6.75;6.75;5.50
32066;PMS7003;18573;47.890;35.066;2022-12-18T08:18:51;7.00;7.00;5.00
32066;PMS7003;18573;47.890;35.066;2022-12-18T08:21:25;7.00;7.00;5.00
32066;PMS7003;18573;47.890;35.066;2022-12-18T08:23:56;7.00;7.00;5.00
32066;PMS7003;18573;47.890;35.066;2022-12-18T08:26:27;14.00;11.50;5.50
32066;PMS7003;18573;47.890;35.066;2022-12-18T08:28:58;7.25;7.25;5.50
32066;PMS7003;18573;47.890;35.066;2022-12-18T08:31:29;11.50;10.00;5.25
32066;PMS7003;18573;47.890;35.066;2022-12-18T08:33:58;8.00;7.25;5.25
32066;PMS7003;18573;47.890;35.066;2022-12-18T08:36:27;9.75;9.75;5.25
32066;PMS7003;18573;47.890;35.066;2022-12-18T08:38:56;9.00;9.00;5.25
32066;PMS7003;18573;47.890;35.066;2022-12-18T08:41:26;7.00;5.50;2.50
32066;PMS7003;18573;47.890;35.066;2022-12-18T08:43:55;9.00;9.00;6.25
32066;PMS7003;18573;47.890;35.066;2022-12-18T08:46:43;10.50;10.00;6.00
32066;PMS7003;18573;47.890;35.066;2022-12-18T08:49:12;8.50;8.50;4.00
32066;PMS7003;18573;47.890;35.066;2022-12-18T08:51:41;11.00;10.00;6.00
32066;PMS7003;18573;47.890;35.066;2022-12-18T08:54:13;6.00;6.00;2.50
32066;PMS7003;18573;47.890;35.066;2022-12-18T08:56:42;8.75;8.75;4.75
32066;PMS7003;18573;47.890;35.066;2022-12-18T08:59:11;7.25;7.25;4.00
32066;PMS7003;18573;47.890;35.066;2022-12-18T09:01:42;14.25;12.50;7.00
32066;PMS7003;18573;47.890;35.066;2022-12-18T09:04:11;8.00;7.75;5.00
32066;PMS7003;18573;47.890;35.066;2022-12-18T09:06:41;13.00;13.00;9.25
32066;PMS7003;18573;47.890;35.066;2022-12-18T09:09:10;11.75;11.75;7.00
32066;PMS7003;18573;47.890;35.066;2022-12-18T09:11:39;10.50;10.50;5.00
32066;PMS7003;18573;47.890;35.066;2022-12-18T09:14:08;12.75;11.00;7.25
32066;PMS7003;18573;47.890;35.066;2022-12-18T09:16:38;7.00;7.00;7.00
32066;PMS7003;18573;47.890;35.066;2022-12-18T09:19:08;16.75;11.75;6.50
32066;PMS7003;18573;47.890;35.066;2022-12-18T09:21:38;15.75;15.75;8.00
32066;PMS7003;18573;47.890;35.066;2022-12-18T09:24:11;14.50;12.75;8.25
32066;PMS7003;18573;47.890;35.066;2022-12-18T09:26:41;20.75;18.50;10.50
32066;PMS7003;18573;47.890;35.066;2022-12-18T09:29:11;17.75;17.75;4.50
32066;PMS7003;18573;47.890;35.066;2022-12-18T09:31:43;22.50;19.00;10.50
32066;PMS7003;18573;47.890;35.066;2022-12-18T09:34:12;21.50;20.50;9.00
32066;PMS7003;18573;47.890;35.066;2022-12-18T09:36:41;17.50;15.50;8.50
32066;PMS7003;18573;47.890;35.066;2022-12-18T09:39:10;18.25;15.75;10.25
32066;PMS7003;18573;47.890;35.066;2022-12-18T09:41:41;14.00;14.00;10.00
32066;PMS7003;18573;47.890;35.066;2022-12-18T09:44:29;21.75;17.75;10.00
32066;PMS7003;18573;47.890;35.066;2022-12-18T09:47:03;19.75;17.50;9.00
32066;PMS7003;18573;47.890;35.066;2022-12-18T09:49:44;20.25;19.50;10.50
32066;PMS7003;18573;47.890;35.066;2022-12-18T09:52:19;18.00;15.00;7.00
32066;PMS7003;18573;47.890;35.066;2022-12-18T09:57:53;16.25;16.25;8.00
32066;PMS7003;18573;47.890;35.066;2022-12-18T10:00:26;17.00;13.25;9.00
32066;PMS7003;18573;47.890;35.066;2022-12-18T10:03:08;14.25;12.50;5.50
32066;PMS7003;18573;47.890;35.066;2022-12-18T10:05:37;18.00;18.00;10.00
32066;PMS7003;18573;47.890;35.066;2022-12-18T10:08:18;19.25;18.50;9.50
32066;PMS7003;18573;47.890;35.066;2022-12-18T10:10:51;19.25;16.75;9.00
32066;PMS7003;18573;47.890;35.066;2022-12-18T10:16:27;17.75;15.50;8.25
32066;PMS7003;18573;47.890;35.066;2022-12-18T10:19:14;11.25;10.25;4.00
32066;PMS7003;18573;47.890;35.066;2022-12-18T10:24:46;18.50;16.00;8.25
32066;PMS7003;18573;47.890;35.066;2022-12-18T10:27:16;21.00;15.50;8.75
32066;PMS7003;18573;47.890;35.066;2022-12-18T10:29:46;19.25;13.75;7.25
32066;PMS7003;18573;47.890;35.066;2022-12-18T10:32:17;16.25;16.00;8.00
32066;PMS7003;18573;47.890;35.066;2022-12-18T10:34:49;20.75;18.75;8.25
32066;PMS7003;18573;47.890;35.066;2022-12-18T10:37:22;24.50;21.25;8.75
32066;PMS7003;18573;47.890;35.066;2022-12-18T10:42:44;18.00;17.00;9.25
32066;PMS7003;18573;47.890;35.066;2022-12-18T10:45:14;19.00;19.00;8.25
32066;PMS7003;18573;47.890;35.066;2022-12-18T10:47:50;30.75;27.75;12.00
32066;PMS7003;18573;47.890;35.066;2022-12-18T10:50:21;23.50;22.00;11.25
32066;PMS7003;18573;47.890;35.066;2022-12-18T10:52:56;25.75;23.00;10.50
32066;PMS7003;18573;47.890;35.066;2022-12-18T10:55:30;31.25;22.50;11.00
32066;PMS7003;18573;47.890;35.066;2022-12-18T10:58:15;23.00;19.00;7.00
32066;PMS7003;18573;47.890;35.066;2022-12-18T11:01:16;27.00;22.25;11.00
32066;PMS7003;18573;47.890;35.066;2022-12-18T11:03:32;27.75;22.00;12.50
32066;PMS7003;18573;47.890;35.066;2022-12-18T11:06:04;25.00;24.00;12.25
32066;PMS7003;18573;47.890;35.066;2022-12-18T11:08:38;29.50;26.50;10.00
32066;PMS7003;18573;47.890;35.066;2022-12-18T11:11:21;31.25;25.75;12.25
32066;PMS7003;18573;47.890;35.066;2022-12-18T11:16:30;26.00;22.50;12.50
32066;PMS7003;18573;47.890;35.066;2022-12-18T11:19:18;18.50;15.00;9.00
32066;PMS7003;18573;47.890;35.066;2022-12-18T11:21:51;23.50;19.00;10.00
32066;PMS7003;18573;47.890;35.066;2022-12-18T11:24:21;18.75;18.50;9.75
32066;PMS7003;18573;47.890;35.066;2022-12-18T11:26:59;20.00;19.50;12.00
32066;PMS7003;18573;47.890;35.066;2022-12-18T11:29:34;32.25;26.75;13.00
32066;PMS7003;18573;47.890;35.066;2022-12-18T11:32:26;20.00;19.50;12.00
32066;PMS7003;18573;47.890;35.066;2022-12-18T11:35:08;25.25;22.00;10.50
32066;PMS7003;18573;47.890;35.066;2022-12-18T11:37:32;26.25;22.50;10.00
32066;PMS7003;18573;47.890;35.066;2022-12-18T11:40:06;28.50;21.25;10.00
32066;PMS7003;18573;47.890;35.066;2022-12-18T11:45:30;25.50;24.75;12.25
32066;PMS7003;18573;47.890;35.066;2022-12-18T11:48:05;26.75;22.50;10.75
32066;PMS7003;18573;47.890;35.066;2022-12-18T11:53:18;31.25;27.50;12.75
32066;PMS7003;18573;47.890;35.066;2022-12-18T11:55:53;20.50;20.50;11.00
32066;PMS7003;18573;47.890;35.066;2022-12-18T12:09:31;31.00;27.25;12.25
32066;PMS7003;18573;47.890;35.066;2022-12-18T12:17:37;20.25;20.25;12.50
32066;PMS7003;18573;47.890;35.066;2022-12-18T12:20:20;26.75;25.00;13.00
32066;PMS7003;18573;47.890;35.066;2022-12-18T12:31:13;21.25;17.00;10.00
32066;PMS7003;18573;47.890;35.066;2022-12-18T12:36:20;28.00;23.50;13.00
32066;PMS7003;18573;47.890;35.066;2022-12-18T12:39:00;19.75;16.75;10.50
32066;PMS7003;18573;47.890;35.066;2022-12-18T12:41:27;19.75;18.25;8.50
32066;PMS7003;18573;47.890;35.066;2022-12-18T12:44:17;17.00;15.25;9.50
32066;PMS7003;18573;47.890;35.066;2022-12-18T12:46:55;22.50;18.75;7.25
32066;PMS7003;18573;47.890;35.066;2022-12-18T12:49:27;14.50;14.50;10.00
32066;PMS7003;18573;47.890;35.066;2022-12-18T12:52:14;24.25;19.00;10.00
32066;PMS7003;18573;47.890;35.066;2022-12-18T12:54:40;21.25;21.00;9.00
32066;PMS7003;18573;47.890;35.066;2022-12-18T12:57:13;19.50;18.00;10.00
32066;PMS7003;18573;47.890;35.066;2022-12-18T13:02:29;18.75;15.00;6.25
32066;PMS7003;18573;47.890;35.066;2022-12-18T13:08:30;20.50;18.50;9.50
32066;PMS7003;18573;47.890;35.066;2022-12-18T13:10:41;15.00;14.75;6.00
32066;PMS7003;18573;47.890;35.066;2022-12-18T13:13:10;20.50;18.50;12.00
32066;PMS7003;18573;47.890;35.066;2022-12-18T13:18:20;24.00;19.00;10.50
32066;PMS7003;18573;47.890;35.066;2022-12-18T13:20:50;21.25;17.50;10.00
32066;PMS7003;18573;47.890;35.066;2022-12-18T13:23:27;19.25;18.00;9.00
32066;PMS7003;18573;47.890;35.066;2022-12-18T13:28:51;27.25;23.25;12.50
32066;PMS7003;18573;47.890;35.066;2022-12-18T13:39:50;21.75;19.25;10.00
32066;PMS7003;18573;47.890;35.066;2022-12-18T13:42:40;30.50;23.75;10.00
32066;PMS7003;18573;47.890;35.066;2022-12-18T13:48:15;19.00;18.75;10.00
32066;PMS7003;18573;47.890;35.066;2022-12-18T13:50:49;21.25;19.75;9.25
32066;PMS7003;18573;47.890;35.066;2022-12-18T13:53:21;26.50;18.50;10.00
32066;PMS7003;18573;47.890;35.066;2022-12-18T13:55:53;27.00;24.25;12.50
32066;PMS7003;18573;47.890;35.066;2022-12-18T13:58:22;23.00;20.25;11.50
32066;PMS7003;18573;47.890;35.066;2022-12-18T14:00:51;23.75;19.75;12.50
32066;PMS7003;18573;47.890;35.066;2022-12-18T14:05:56;23.50;20.00;9.75
32066;PMS7003;18573;47.890;35.066;2022-12-18T14:08:32;28.50;25.50;12.00
32066;PMS7003;18573;47.890;35.066;2022-12-18T14:11:11;20.75;18.50;9.50
32066;PMS7003;18573;47.890;35.066;2022-12-18T14:13:42;23.00;23.00;12.00
32066;PMS7003;18573;47.890;35.066;2022-12-18T14:16:13;29.25;22.75;11.00
32066;PMS7003;18573;47.890;35.066;2022-12-18T14:18:52;29.50;21.50;10.50
32066;PMS7003;18573;47.890;35.066;2022-12-18T14:21:28;22.00;21.25;12.50
32066;PMS7003;18573;47.890;35.066;2022-12-18T14:26:49;26.50;26.50;14.50
32066;PMS7003;18573;47.890;35.066;2022-12-18T14:29:20;23.50;21.50;12.75
32066;PMS7003;18573;47.890;35.066;2022-12-18T14:34:48;20.75;18.75;9.00
32066;PMS7003;18573;47.890;35.066;2022-12-18T14:37:27;19.50;19.50;9.75
32066;PMS7003;18573;47.890;35.066;2022-12-18T14:39:57;27.75;23.50;14.25
32066;PMS7003;18573;47.890;35.066;2022-12-18T14:42:30;30.75;25.50;12.50
32066;PMS7003;18573;47.890;35.066;2022-12-18T14:48:08;33.50;27.25;15.00
32066;PMS7003;18573;47.890;35.066;2022-12-18T14:53:38;33.25;27.50;15.00
32066;PMS7003;18573;47.890;35.066;2022-12-18T14:56:13;37.50;34.00;13.50
32066;PMS7003;18573;47.890;35.066;2022-12-18T14:58:46;33.50;29.50;16.50
32066;PMS7003;18573;47.890;35.066;2022-12-18T15:01:21;32.25;29.00;14.25
32066;PMS7003;18573;47.890;35.066;2022-12-18T15:03:59;38.25;28.00;15.75
32066;PMS7003;18573;47.890;35.066;2022-12-18T15:06:34;36.00;29.50;15.75
32066;PMS7003;18573;47.890;35.066;2022-12-18T15:09:28;38.00;32.00;15.00
32066;PMS7003;18573;47.890;35.066;2022-12-18T15:11:48;40.00;33.50;15.75
32066;PMS7003;18573;47.890;35.066;2022-12-18T15:17:18;41.50;39.75;16.50
32066;PMS7003;18573;47.890;35.066;2022-12-18T15:19:50;11.00;10.00;0.50
32066;PMS7003;18573;47.890;35.066;2022-12-18T15:22:33;40.75;38.25;18.75
32066;PMS7003;18573;47.890;35.066;2022-12-18T15:24:57;47.25;39.25;19.00
32066;PMS7003;18573;47.890;35.066;2022-12-18T15:32:41;42.75;39.50;17.00
32066;PMS7003;18573;47.890;35.066;2022-12-18T15:35:19;41.00;34.75;15.00
32066;PMS7003;18573;47.890;35.066;2022-12-18T15:37:50;45.75;40.00;18.25
32066;PMS7003;18573;47.890;35.066;2022-12-18T15:40:21;39.75;36.25;18.25
32066;PMS7003;18573;47.890;35.066;2022-12-18T15:42:52;43.00;37.50;16.50
32066;PMS7003;18573;47.890;35.066;2022-12-18T15:45:40;39.50;38.00;18.25
32066;PMS7003;18573;47.890;35.066;2022-12-18T15:48:19;43.50;37.25;17.00
32066;PMS7003;18573;47.890;35.066;2022-12-18T15:50:48;39.00;33.50;16.50
32066;PMS7003;18573;47.890;35.066;2022-12-18T15:53:24;31.00;31.00;13.00
32066;PMS7003;18573;47.890;35.066;2022-12-18T15:55:55;43.50;33.00;13.00
32066;PMS7003;18573;47.890;35.066;2022-12-18T15:58:42;42.75;35.75;15.75
32066;PMS7003;18573;47.890;35.066;2022-12-18T16:01:12;38.50;36.00;18.00
32066;PMS7003;18573;47.890;35.066;2022-12-18T16:03:41;39.50;33.75;15.75
32066;PMS7003;18573;47.890;35.066;2022-12-18T16:06:11;40.50;39.25;17.75
32066;PMS7003;18573;47.890;35.066;2022-12-18T16:08:40;39.25;33.25;17.75
32066;PMS7003;18573;47.890;35.066;2022-12-18T16:11:16;38.50;29.50;18.25
32066;PMS7003;18573;47.890;35.066;2022-12-18T16:13:42;34.75;32.25;17.25
32066;PMS7003;18573;47.890;35.066;2022-12-18T16:16:11;43.75;37.25;18.25